createdAt,value
2022-12-03T00:00:47.800Z,79.08
2022-12-03T00:10:57.258Z,79.54
2022-12-03T00:20:59.438Z,79.65
2022-12-03T00:31:01.727Z,79.81
2022-12-03T00:41:03.994Z,80.05
2022-12-03T00:51:06.499Z,79.87
2022-12-03T01:01:08.698Z,79.82
2022-12-03T01:11:30.856Z,79.74
2022-12-03T01:21:33.590Z,79.31
2022-12-03T01:31:54.144Z,79.72
2022-12-03T01:41:58.872Z,79.37
2022-12-03T01:52:01.091Z,79.47
2022-12-03T02:02:35.821Z,79.42
2022-12-03T02:12:43.950Z,79.38
2022-12-03T02:23:04.724Z,78.96
2022-12-03T02:33:07.349Z,78.93
2022-12-03T02:43:10.691Z,79.13
2022-12-03T02:53:17.773Z,78.86
2022-12-03T03:03:21.154Z,78.78
2022-12-03T03:13:23.552Z,78.65
2022-12-03T03:23:26.091Z,78.24
2022-12-03T03:33:28.868Z,78.65
2022-12-03T03:43:34.932Z,78.21
2022-12-03T03:53:40.914Z,78.62
2022-12-03T04:03:43.148Z,78.48
2022-12-03T04:13:45.480Z,78.64
2022-12-03T04:23:47.665Z,78.73
2022-12-03T04:34:08.589Z,78.85
2022-12-03T04:44:29.547Z,78.64
2022-12-03T04:54:31.803Z,78.43
2022-12-03T05:04:34.153Z,78.38
2022-12-03T05:14:36.317Z,78.23
2022-12-03T05:24:38.561Z,78.46
2022-12-03T05:34:40.767Z,78.59
2022-12-03T05:44:42.943Z,78.33
2022-12-03T05:54:45.110Z,78.52
2022-12-03T06:04:47.398Z,78.67
2022-12-03T06:14:49.600Z,78.70
2022-12-03T06:24:52.248Z,79.19
2022-12-03T06:34:54.943Z,79.20
2022-12-03T06:44:57.443Z,79.26
2022-12-03T06:54:59.811Z,79.50
2022-12-03T07:05:02.151Z,79.08
2022-12-03T07:15:04.710Z,79.47
2022-12-03T07:25:07.655Z,79.28
2022-12-03T07:35:09.912Z,79.03
2022-12-03T07:45:12.163Z,79.26
2022-12-03T07:55:14.419Z,78.36
2022-12-03T08:05:16.676Z,78.22
2022-12-03T08:15:21.912Z,78.10
2022-12-03T08:25:30.315Z,76.27
2022-12-03T08:35:32.543Z,76.28
2022-12-03T08:45:40.488Z,74.70
2022-12-03T08:55:47.869Z,73.72
2022-12-03T09:05:51.035Z,73.85
2022-12-03T09:15:53.205Z,74.24
2022-12-03T09:25:55.440Z,74.80
2022-12-03T09:35:57.729Z,74.55
2022-12-03T09:46:00.535Z,73.95
2022-12-03T09:56:02.920Z,73.99
2022-12-03T10:06:05.329Z,73.06
2022-12-03T10:16:12.595Z,73.11
2022-12-03T10:26:14.916Z,73.75
2022-12-03T10:36:19.281Z,72.39
2022-12-03T10:46:22.581Z,70.36
2022-12-03T10:56:26.490Z,70.94
2022-12-03T11:06:31.645Z,70.59
2022-12-03T11:16:39.795Z,70.48
2022-12-03T11:26:41.972Z,70.88
2022-12-03T11:37:21.844Z,70.66
2022-12-03T11:47:24.095Z,69.97
2022-12-03T11:57:33.700Z,69.26
2022-12-03T12:07:36.805Z,70.25
2022-12-03T12:17:39.083Z,70.80
2022-12-03T12:27:45.591Z,70.84
2022-12-03T12:38:00.052Z,71.33
2022-12-03T12:48:24.599Z,73.34
2022-12-03T12:58:31.204Z,73.18
2022-12-03T13:08:43.031Z,73.40
2022-12-03T13:18:53.205Z,74.96
2022-12-03T13:28:57.926Z,76.47
2022-12-03T13:39:00.327Z,76.35
2022-12-03T13:49:02.616Z,76.05
2022-12-03T13:59:05.226Z,76.05
2022-12-03T14:09:07.555Z,76.16
2022-12-03T14:19:09.777Z,76.37
2022-12-03T14:29:11.956Z,76.94
2022-12-03T14:39:14.258Z,77.00
2022-12-03T14:49:16.854Z,77.05
2022-12-03T14:59:24.378Z,77.59
2022-12-03T15:09:30.199Z,78.38
2022-12-03T15:19:33.684Z,78.39
2022-12-03T15:29:35.920Z,79.26
2022-12-03T15:39:39.548Z,79.30
2022-12-03T15:49:44.965Z,78.81
2022-12-03T15:59:47.168Z,79.34
2022-12-03T16:09:49.423Z,78.85
2022-12-03T16:19:51.773Z,79.05
2022-12-03T16:29:56.358Z,80.19
2022-12-03T16:39:58.868Z,79.26
2022-12-03T16:50:03.679Z,80.08
2022-12-03T17:00:07.522Z,80.43
2022-12-03T17:10:10.318Z,81.40
2022-12-03T17:20:14.757Z,82.14
2022-12-03T17:30:17.620Z,81.86
2022-12-03T17:40:20.074Z,82.28
2022-12-03T17:50:22.245Z,82.81
2022-12-03T18:00:24.495Z,82.16
2022-12-03T18:10:28.262Z,82.07
2022-12-03T18:20:30.516Z,82.92
2022-12-03T18:30:32.728Z,82.42
2022-12-03T18:40:35.223Z,82.77
2022-12-03T18:50:39.113Z,83.06
2022-12-03T19:00:42.745Z,82.84
2022-12-03T19:10:45.695Z,82.04
2022-12-03T19:20:48.356Z,81.60
2022-12-03T19:31:02.198Z,81.30
2022-12-03T19:41:06.787Z,81.63
2022-12-03T19:51:32.878Z,82.11
2022-12-03T20:01:34.761Z,81.96
2022-12-03T20:11:37.853Z,82.92
2022-12-03T20:21:40.836Z,82.58
2022-12-03T20:31:43.280Z,82.64
2022-12-03T20:41:45.476Z,82.15
2022-12-03T20:51:51.517Z,82.20
2022-12-03T21:01:53.874Z,81.90
2022-12-03T21:11:56.325Z,82.11
2022-12-03T21:21:58.570Z,81.78
2022-12-03T21:40:12.740Z,81.27
2022-12-03T21:50:14.995Z,80.51
2022-12-03T22:00:17.465Z,80.33
2022-12-03T22:10:19.655Z,80.15
2022-12-03T22:20:21.884Z,80.09
2022-12-03T22:30:24.091Z,79.81
2022-12-03T22:40:26.305Z,79.56
2022-12-03T22:50:28.460Z,79.68
2022-12-03T23:00:33.287Z,79.74
2022-12-03T23:10:41.876Z,79.74
2022-12-03T23:20:46.684Z,79.61
2022-12-03T23:30:48.889Z,79.88
2022-12-03T23:40:53.107Z,80.11
2022-12-03T23:50:55.321Z,80.69
